Time;durP1;ratioP1;P1;durP2;ratioP2;P2;SDS_P1;SDS_P2;PMS_P1;PMS_P2;Temp;Humidity;BMP_temperature;BMP_pressure;BME280_temperature;BME280_humidity;BME280_pressure;Samples;Min_cycle;Max_cycle;Signal;HPM_P1;HPM_P2
2023/10/30 00:01:45;;;;;;;5.90;1.97;;;9.80;99.90;;;;;;5054925;28;20132;-82
2023/10/30 00:04:11;;;;;;;11.40;3.63;;;9.70;99.90;;;;;;5020284;28;20068;-83
2023/10/30 00:06:37;;;;;;;11.37;2.27;;;9.70;99.90;;;;;;5004337;28;20040;-82
2023/10/30 00:09:05;;;;;;;2.60;1.43;;;9.70;99.90;;;;;;5021029;28;20037;-82
2023/10/30 00:11:31;;;;;;;4.07;1.00;;;9.70;99.90;;;;;;5020194;28;20094;-82
2023/10/30 00:13:56;;;;;;;4.63;1.33;;;9.70;99.90;;;;;;5036178;28;20500;-82
2023/10/30 00:16:22;;;;;;;6.03;1.73;;;9.60;99.90;;;;;;5020390;28;20057;-82
2023/10/30 00:18:48;;;;;;;5.17;1.60;;;9.60;99.90;;;;;;5019963;28;20066;-82
2023/10/30 00:21:14;;;;;;;5.15;1.58;;;9.60;99.90;;;;;;5037002;28;20041;-82
2023/10/30 00:23:40;;;;;;;6.32;2.40;;;9.60;99.90;;;;;;5036218;28;20495;-82
2023/10/30 00:26:32;;;;;;;4.77;1.63;;;9.50;99.90;;;;;;5019983;28;20052;-82
2023/10/30 00:28:58;;;;;;;5.93;1.70;;;9.50;99.90;;;;;;5035880;28;20449;-83
2023/10/30 00:31:25;;;;;;;4.17;1.40;;;9.50;99.90;;;;;;5035980;28;20128;-82
2023/10/30 00:33:51;;;;;;;3.50;1.35;;;9.50;99.90;;;;;;5020178;28;20045;-83
2023/10/30 00:36:17;;;;;;;4.10;1.90;;;9.50;99.90;;;;;;5036137;28;20045;-83
2023/10/30 00:38:42;;;;;;;2.97;1.70;;;9.50;99.90;;;;;;5036939;28;20053;-81
2023/10/30 00:41:10;;;;;;;4.67;2.17;;;9.40;99.90;;;;;;5036206;28;20056;-82
2023/10/30 00:43:41;;;;;;;5.03;1.48;;;9.40;99.90;;;;;;5035681;28;20109;-82
2023/10/30 00:49:47;;;;;;;7.95;1.70;;;9.40;99.90;;;;;;5071386;28;20376;-82
2023/10/30 00:55:53;;;;;;;;;;;9.30;99.90;;;;;;5073813;28;20067;-82
2023/10/30 01:02:00;;;;;;;;;;;9.30;99.90;;;;;;5073731;28;20040;-82
2023/10/30 01:04:26;;;;;;;4.63;1.58;;;9.20;99.90;;;;;;5022160;28;19920;-82
2023/10/30 01:06:51;;;;;;;5.87;1.70;;;9.20;99.90;;;;;;5039179;28;20045;-82
2023/10/30 01:09:17;;;;;;;6.00;2.13;;;9.20;99.90;;;;;;5039115;28;20045;-83
2023/10/30 01:11:43;;;;;;;4.60;1.90;;;9.20;99.90;;;;;;5023254;28;20040;-83
2023/10/30 01:18:04;;;;;;;4.20;1.65;;;9.20;99.90;;;;;;5073234;28;20154;-82
2023/10/30 01:24:15;;;;;;;5.63;1.80;;;9.20;99.90;;;;;;5072963;28;20502;-82
2023/10/30 01:26:41;;;;;;;3.78;2.22;;;9.20;99.90;;;;;;5038811;28;20044;-82
2023/10/30 01:29:07;;;;;;;4.10;1.70;;;9.20;99.90;;;;;;5039557;28;20113;-82
2023/10/30 01:31:33;;;;;;;6.00;1.67;;;9.20;99.90;;;;;;5038690;28;20553;-82
2023/10/30 01:33:58;;;;;;;5.03;2.00;;;9.20;99.90;;;;;;5055434;28;20048;-82
2023/10/30 01:36:39;;;;;;;2.90;1.80;;;9.20;99.90;;;;;;5055470;28;20044;-82
2023/10/30 01:39:05;;;;;;;3.45;1.77;;;9.20;99.90;;;;;;5038824;28;20036;-83
2023/10/30 01:41:30;;;;;;;4.63;2.00;;;9.30;99.90;;;;;;5073091;28;20578;-83
2023/10/30 01:43:57;;;;;;;4.57;2.03;;;9.20;99.90;;;;;;5038707;28;20075;-83
2023/10/30 01:46:24;;;;;;;3.90;1.90;;;9.20;99.90;;;;;;5073042;28;20041;-83
2023/10/30 01:48:59;;;;;;;4.53;1.83;;;9.20;99.90;;;;;;5038531;28;20602;-83
2023/10/30 01:55:26;;;;;;;8.50;1.90;;;9.20;99.90;;;;;;5072851;28;20040;-82
2023/10/30 02:01:46;;;;;;;4.57;2.03;;;9.20;99.90;;;;;;5073069;28;20038;-82
2023/10/30 02:07:45;;;;;;;7.68;2.15;;;9.20;99.90;;;;;;5055186;28;20056;-83
2023/10/30 02:10:11;;;;;;;10.63;2.60;;;9.30;99.90;;;;;;5055145;28;20053;-83
2023/10/30 02:12:37;;;;;;;7.30;2.40;;;9.30;99.90;;;;;;5042517;28;20084;-83
2023/10/30 02:15:03;;;;;;;4.17;2.63;;;9.30;99.90;;;;;;5053974;28;20411;-83
2023/10/30 02:17:29;;;;;;;5.85;2.13;;;9.30;99.90;;;;;;5022138;28;20546;-83
2023/10/30 02:19:55;;;;;;;6.77;2.13;;;9.30;99.90;;;;;;5022497;28;20137;-83
2023/10/30 02:22:20;;;;;;;10.43;2.27;;;9.30;99.90;;;;;;5056614;28;20040;-83
2023/10/30 02:24:46;;;;;;;9.33;2.60;;;9.30;99.90;;;;;;5021856;28;20151;-83
2023/10/30 02:27:12;;;;;;;10.70;2.67;;;9.30;99.90;;;;;;5056203;28;20083;-83
2023/10/30 02:29:47;;;;;;;7.73;2.60;;;9.30;99.90;;;;;;5021952;28;20080;-83
2023/10/30 02:32:13;;;;;;;7.25;2.63;;;9.30;99.90;;;;;;5055901;28;20048;-83
2023/10/30 02:34:39;;;;;;;7.50;2.10;;;9.30;99.90;;;;;;5054447;28;20052;-82
2023/10/30 02:37:08;;;;;;;6.77;3.27;;;9.30;99.90;;;;;;5057920;28;20044;-83
2023/10/30 02:43:22;;;;;;;;;;;9.30;99.90;;;;;;5076083;28;20043;-83
2023/10/30 02:45:49;;;;;;;8.95;1.95;;;9.30;99.90;;;;;;5058927;28;19920;-83
2023/10/30 02:48:14;;;;;;;6.88;2.58;;;9.30;99.90;;;;;;5041618;28;20106;-83
2023/10/30 02:50:42;;;;;;;7.07;1.87;;;9.30;99.90;;;;;;5041734;28;20052;-83
2023/10/30 02:53:08;;;;;;;6.22;2.40;;;9.30;99.90;;;;;;5057960;28;20131;-83
2023/10/30 02:55:33;;;;;;;14.60;3.30;;;9.20;99.90;;;;;;5057739;28;20132;-83
2023/10/30 02:57:59;;;;;;;6.83;2.13;;;9.20;99.90;;;;;;5041261;28;20166;-83
2023/10/30 03:00:25;;;;;;;4.33;1.70;;;9.10;99.90;;;;;;5041622;28;20040;-83
2023/10/30 03:02:54;;;;;;;8.97;2.60;;;9.10;99.90;;;;;;5057315;28;20454;-83
2023/10/30 03:09:04;;;;;;;9.05;3.67;;;9.00;99.90;;;;;;5075140;28;20074;-82
2023/10/30 03:11:49;;;;;;;7.45;2.45;;;9.00;99.90;;;;;;5041097;28;20135;-82
2023/10/30 03:14:15;;;;;;;9.48;2.70;;;9.00;99.90;;;;;;5057416;28;20080;-83
2023/10/30 03:16:41;;;;;;;6.35;2.15;;;9.00;99.90;;;;;;5058078;28;20067;-83
2023/10/30 03:19:09;;;;;;;9.10;2.83;;;9.00;99.90;;;;;;5041322;28;20464;-82
2023/10/30 03:21:35;;;;;;;7.70;2.95;;;8.90;99.90;;;;;;5040473;28;20508;-83
2023/10/30 03:24:01;;;;;;;4.57;2.20;;;8.90;99.90;;;;;;5041699;28;20051;-82
2023/10/30 03:26:27;;;;;;;6.90;2.45;;;8.90;99.90;;;;;;5074806;28;20044;-83
2023/10/30 03:28:53;;;;;;;5.67;2.00;;;8.90;99.90;;;;;;5057372;28;20051;-83
2023/10/30 03:31:18;;;;;;;6.17;2.63;;;8.90;99.90;;;;;;5007721;28;20404;-82
2023/10/30 03:33:44;;;;;;;7.00;2.80;;;8.90;99.90;;;;;;5024166;28;20082;-83
2023/10/30 03:36:22;;;;;;;4.33;1.80;;;9.00;99.90;;;;;;5024102;28;20051;-83
2023/10/30 03:42:30;;;;;;;7.00;2.60;;;9.00;99.90;;;;;;5074527;28;20085;-83
2023/10/30 03:48:45;;;;;;;7.60;2.45;;;9.00;99.90;;;;;;5060411;28;20090;-83
2023/10/30 03:54:51;;;;;;;;;;;9.00;99.90;;;;;;5054921;28;20044;-82
2023/10/30 03:57:17;;;;;;;8.90;2.67;;;8.90;99.90;;;;;;5054657;28;19950;-83
2023/10/30 03:59:48;;;;;;;8.27;2.27;;;8.90;99.90;;;;;;5036857;28;20053;-83
2023/10/30 04:02:34;;;;;;;7.97;2.75;;;8.20;99.90;;;;;;5019915;28;20137;-83
2023/10/30 04:05:00;;;;;;;6.40;2.38;;;9.00;99.90;;;;;;5037603;28;20093;-83
2023/10/30 04:07:26;;;;;;;7.47;2.20;;;9.00;99.90;;;;;;5054242;28;20167;-82
2023/10/30 04:09:51;;;;;;;9.90;2.30;;;9.00;99.90;;;;;;5020588;28;20068;-83
2023/10/30 04:15:46;;;;;;;9.93;3.20;;;9.00;99.90;;;;;;5013267;28;20100;-83
2023/10/30 04:18:15;;;;;;;7.90;2.65;;;9.10;99.90;;;;;;4995962;28;20239;-83
2023/10/30 04:20:41;;;;;;;8.23;3.37;;;9.00;99.90;;;;;;4996761;28;20136;-83
2023/10/30 04:23:06;;;;;;;11.80;2.67;;;9.10;99.90;;;;;;5012020;28;20088;-81
2023/10/30 04:25:32;;;;;;;6.53;2.70;;;9.00;99.90;;;;;;5011948;28;20058;-82
2023/10/30 04:28:02;;;;;;;7.13;2.67;;;9.00;99.90;;;;;;4995561;28;20058;-82
2023/10/30 04:34:19;;;;;;;11.68;3.55;;;9.10;99.90;;;;;;5015336;28;20083;-83
2023/10/30 04:36:45;;;;;;;8.43;2.38;;;9.10;99.90;;;;;;5015246;28;20057;-83
2023/10/30 04:39:13;;;;;;;11.13;2.47;;;9.10;99.90;;;;;;5014680;28;20151;-83
2023/10/30 04:41:39;;;;;;;9.82;3.03;;;9.10;99.90;;;;;;4998963;28;20093;-82
2023/10/30 04:44:06;;;;;;;3.85;2.40;;;9.10;99.90;;;;;;5031619;28;20132;-83
2023/10/30 04:46:32;;;;;;;9.95;2.10;;;9.10;99.90;;;;;;5060097;28;20052;-83
2023/10/30 04:48:57;;;;;;;10.77;3.50;;;9.10;99.90;;;;;;5055878;28;20518;-83
2023/10/30 04:51:25;;;;;;;11.07;3.70;;;9.00;99.90;;;;;;5055765;28;20131;-83
2023/10/30 04:53:51;;;;;;;7.80;2.97;;;9.00;99.90;;;;;;5073474;28;20488;-83
2023/10/30 04:56:16;;;;;;;9.33;3.37;;;9.00;99.90;;;;;;5039078;28;20102;-83
2023/10/30 04:58:42;;;;;;;7.73;2.30;;;9.00;99.90;;;;;;5074355;28;20049;-83
2023/10/30 05:01:26;;;;;;;8.40;3.20;;;9.00;99.90;;;;;;5056090;28;20083;-83
2023/10/30 05:07:35;;;;;;;7.95;3.20;;;8.90;99.90;;;;;;5073266;28;20085;-83
2023/10/30 05:17:18;;;;;;;8.45;3.92;;;8.80;99.90;;;;;;5073160;28;19974;-82
2023/10/30 05:23:24;;;;;;;10.35;2.75;;;8.80;99.90;;;;;;5073089;28;20043;-82
2023/10/30 05:29:31;;;;;;;8.45;3.08;;;8.70;99.90;;;;;;5053078;28;20031;-82
2023/10/30 05:35:38;;;;;;;8.25;2.90;;;8.70;99.90;;;;;;5052988;28;20379;-83
2023/10/30 05:38:05;;;;;;;7.90;2.53;;;8.70;99.90;;;;;;5035495;28;20132;-83
2023/10/30 05:40:30;;;;;;;;;;;8.60;99.90;;;;;;5031702;28;20060;-81
2023/10/30 05:42:56;;;;;;;7.68;2.85;;;8.60;99.90;;;;;;5072510;28;20007;-81
2023/10/30 05:45:23;;;;;;;9.40;2.30;;;8.60;99.90;;;;;;5039174;28;20055;-83
2023/10/30 05:47:48;;;;;;;11.02;2.88;;;8.60;99.90;;;;;;5055158;28;20052;-82
2023/10/30 05:50:14;;;;;;;10.60;2.77;;;8.60;99.90;;;;;;5056444;28;20127;-83
2023/10/30 05:52:45;;;;;;;7.17;2.23;;;8.60;99.90;;;;;;5041891;28;20041;-82
2023/10/30 05:55:12;;;;;;;12.98;3.15;;;8.60;99.90;;;;;;5009993;28;20056;-83
2023/10/30 05:57:41;;;;;;;8.13;2.10;;;8.60;99.90;;;;;;5076576;28;20087;-82
2023/10/30 06:00:07;;;;;;;8.98;3.25;;;8.60;99.90;;;;;;5059086;28;20136;-83
2023/10/30 06:02:41;;;;;;;10.23;3.25;;;8.60;99.90;;;;;;5058730;28;20480;-82
2023/10/30 06:08:47;;;;;;;15.75;2.53;;;8.60;99.90;;;;;;5074456;28;20115;-82
2023/10/30 06:11:13;;;;;;;9.23;2.97;;;8.60;99.90;;;;;;5033862;28;20357;-92
2023/10/30 06:17:02;;;;;;;10.35;2.50;;;8.60;99.90;;;;;;5037777;28;20041;-87
2023/10/30 06:19:28;;;;;;;10.13;2.25;;;8.60;99.90;;;;;;5025826;28;20048;-87
2023/10/30 06:21:59;;;;;;;13.93;2.90;;;8.60;99.90;;;;;;5022234;28;20053;-86
2023/10/30 06:28:30;;;;;;;11.15;2.63;;;8.70;99.90;;;;;;5056238;28;20044;-86
2023/10/30 06:30:56;;;;;;;9.32;2.97;;;8.70;99.90;;;;;;5038511;28;20056;-85
2023/10/30 06:33:22;;;;;;;8.00;2.97;;;8.70;99.90;;;;;;5021733;28;20041;-85
2023/10/30 06:35:55;;;;;;;9.47;3.17;;;8.70;99.90;;;;;;5005461;28;20053;-85
2023/10/30 06:38:21;;;;;;;7.72;2.55;;;8.70;99.90;;;;;;5038388;28;20048;-83
2023/10/30 06:40:48;;;;;;;9.20;2.80;;;8.80;99.90;;;;;;5053623;28;20067;-82
2023/10/30 06:43:14;;;;;;;7.03;3.88;;;8.80;99.90;;;;;;5048585;28;20105;-82
2023/10/30 06:45:40;;;;;;;27.53;4.80;;;8.70;99.90;;;;;;5023876;28;20040;-83
2023/10/30 06:48:05;;;;;;;11.83;3.33;;;8.90;99.90;;;;;;5040638;28;20079;-81
2023/10/30 06:50:31;;;;;;;14.73;3.77;;;8.90;99.90;;;;;;5041509;28;20036;-81
2023/10/30 06:52:57;;;;;;;11.77;2.63;;;8.90;99.90;;;;;;5042796;28;20033;-83
2023/10/30 06:55:23;;;;;;;9.27;2.95;;;9.00;99.90;;;;;;5019988;28;20041;-82
2023/10/30 06:57:48;;;;;;;8.17;2.43;;;9.00;99.90;;;;;;5048497;28;20033;-81
2023/10/30 07:00:14;;;;;;;13.03;4.27;;;9.10;99.90;;;;;;5060828;28;20052;-82
2023/10/30 07:02:41;;;;;;;11.95;3.75;;;9.20;99.90;;;;;;5001311;28;20048;-84
2023/10/30 07:05:07;;;;;;;6.95;2.75;;;9.30;99.90;;;;;;5061333;28;20444;-85
2023/10/30 07:07:35;;;;;;;11.35;2.90;;;9.30;99.90;;;;;;5023393;28;20377;-84
2023/10/30 07:10:02;;;;;;;12.88;3.00;;;9.50;99.90;;;;;;5035254;28;20102;-84
2023/10/30 07:12:28;;;;;;;10.48;2.50;;;9.50;99.90;;;;;;5030950;28;20037;-85
2023/10/30 07:14:54;;;;;;;13.98;3.45;;;9.60;99.90;;;;;;5049512;28;20065;-84
2023/10/30 07:17:20;;;;;;;12.07;3.87;;;9.70;99.90;;;;;;5043250;28;20064;-83
2023/10/30 07:19:46;;;;;;;7.03;2.63;;;9.80;99.90;;;;;;5051305;28;20067;-84
2023/10/30 07:22:12;;;;;;;7.30;2.25;;;9.80;99.90;;;;;;5041477;28;20033;-84
2023/10/30 07:24:38;;;;;;;15.98;4.00;;;9.90;99.90;;;;;;5024674;28;20041;-83
2023/10/30 07:27:03;;;;;;;9.77;2.50;;;10.00;99.90;;;;;;5023084;28;20053;-83
2023/10/30 07:29:32;;;;;;;12.10;2.87;;;10.10;99.90;;;;;;5036519;28;20053;-83
2023/10/30 07:31:58;;;;;;;9.80;2.72;;;10.10;99.90;;;;;;5032659;28;20099;-84
2023/10/30 07:34:24;;;;;;;11.00;3.43;;;10.20;99.90;;;;;;5040160;28;20092;-83
2023/10/30 07:36:50;;;;;;;7.60;2.50;;;10.20;99.90;;;;;;5054172;28;20040;-83
2023/10/30 07:39:16;;;;;;;9.73;2.60;;;10.20;99.90;;;;;;5053343;28;20075;-84
2023/10/30 07:41:42;;;;;;;12.17;3.97;;;10.30;99.90;;;;;;5030445;28;20087;-83
2023/10/30 07:44:08;;;;;;;27.88;4.55;;;10.30;99.90;;;;;;5035083;28;20049;-84
2023/10/30 07:46:35;;;;;;;7.93;2.73;;;10.30;99.90;;;;;;5060303;28;20106;-84
2023/10/30 07:49:07;;;;;;;12.43;4.28;;;10.40;99.90;;;;;;5048592;28;20294;-84
2023/10/30 07:51:33;;;;;;;12.07;2.78;;;10.50;99.90;;;;;;5073165;28;20045;-95
2023/10/30 07:53:59;;;;;;;12.60;3.25;;;10.50;99.90;;;;;;5043034;28;20045;-84
2023/10/30 07:56:25;;;;;;;9.50;2.50;;;10.50;99.90;;;;;;5035669;28;20044;-85
2023/10/30 07:58:51;;;;;;;6.55;3.30;;;10.60;99.90;;;;;;5044732;28;20120;-85
2023/10/30 08:01:20;;;;;;;12.03;3.63;;;10.70;99.90;;;;;;5034383;28;20049;-84
2023/10/30 08:03:48;;;;;;;10.95;2.78;;;10.70;99.90;;;;;;5031967;28;20089;-83
2023/10/30 08:06:14;;;;;;;7.37;2.80;;;10.80;99.90;;;;;;5002841;28;20538;-84
2023/10/30 08:08:40;;;;;;;11.67;2.30;;;10.80;99.90;;;;;;5033708;28;20053;-84
2023/10/30 08:11:06;;;;;;;8.77;2.57;;;10.80;99.90;;;;;;5031580;28;20076;-84
2023/10/30 08:13:33;;;;;;;10.27;3.03;;;10.90;99.90;;;;;;5028316;28;20052;-84
2023/10/30 08:15:58;;;;;;;10.38;2.67;;;10.90;99.90;;;;;;5036849;28;20303;-83
2023/10/30 08:18:25;;;;;;;7.07;2.70;;;11.00;99.90;;;;;;5060883;28;20059;-81
2023/10/30 08:20:51;;;;;;;4.53;2.28;;;11.00;99.90;;;;;;5061561;28;20056;-85
2023/10/30 08:23:17;;;;;;;6.57;2.28;;;11.00;99.90;;;;;;5036397;28;20049;-86
2023/10/30 08:25:43;;;;;;;9.40;3.03;;;11.10;99.90;;;;;;5019856;28;20113;-86
2023/10/30 08:28:09;;;;;;;11.25;3.03;;;11.10;99.90;;;;;;5019967;28;20480;-87
2023/10/30 08:30:41;;;;;;;11.52;3.20;;;11.20;99.90;;;;;;5020519;28;20044;-85
2023/10/30 08:33:07;;;;;;;11.25;3.13;;;11.20;99.90;;;;;;5036911;28;20045;-85
2023/10/30 08:35:32;;;;;;;6.17;2.23;;;11.30;99.90;;;;;;5017556;28;20049;-86
2023/10/30 08:37:59;;;;;;;14.27;3.13;;;11.40;99.90;;;;;;5018041;28;20044;-85
2023/10/30 08:40:25;;;;;;;8.35;2.78;;;10.50;99.90;;;;;;5066835;28;20047;-86
2023/10/30 08:42:51;;;;;;;9.93;2.67;;;11.40;99.90;;;;;;5032604;28;20049;-84
2023/10/30 08:45:17;;;;;;;13.13;3.10;;;11.60;99.90;;;;;;5017743;28;20040;-86
2023/10/30 08:47:46;;;;;;;6.93;3.15;;;11.50;99.90;;;;;;5021320;28;20049;-85
2023/10/30 08:50:12;;;;;;;12.60;3.05;;;11.60;99.90;;;;;;5039093;28;20062;-86
2023/10/30 08:52:40;;;;;;;11.93;3.03;;;11.70;99.90;;;;;;5054917;28;20496;-86
2023/10/30 08:55:06;;;;;;;8.18;3.03;;;12.00;99.90;;;;;;5022888;28;20090;-83
2023/10/30 08:57:32;;;;;;;7.75;3.67;;;11.50;99.90;;;;;;5055413;28;20102;-84
2023/10/30 08:59:58;;;;;;;14.77;3.20;;;11.80;99.90;;;;;;5038614;28;20045;-85
2023/10/30 09:02:24;;;;;;;6.77;2.27;;;11.80;99.90;;;;;;5049814;28;20124;-84
2023/10/30 09:04:50;;;;;;;14.33;3.50;;;11.80;99.90;;;;;;5035143;28;20291;-85
2023/10/30 09:07:16;;;;;;;10.87;3.00;;;11.90;99.90;;;;;;5035208;28;20135;-85
2023/10/30 09:09:42;;;;;;;11.45;2.92;;;12.00;99.90;;;;;;5035362;28;20060;-85
2023/10/30 09:12:08;;;;;;;9.50;2.92;;;12.00;99.90;;;;;;5018428;28;20052;-85
2023/10/30 09:14:34;;;;;;;6.57;2.97;;;11.90;99.90;;;;;;5018122;28;20049;-85
2023/10/30 09:16:59;;;;;;;13.77;3.83;;;12.20;99.90;;;;;;5035200;28;20424;-85
2023/10/30 09:19:25;;;;;;;5.25;2.22;;;12.30;99.90;;;;;;5072840;28;20040;-84
2023/10/30 09:21:52;;;;;;;10.95;2.28;;;12.30;99.60;;;;;;5051167;28;20045;-83
2023/10/30 09:24:18;;;;;;;10.45;2.65;;;12.40;98.70;;;;;;5038394;28;20049;-84
2023/10/30 09:26:44;;;;;;;12.40;3.75;;;12.50;97.40;;;;;;5077143;28;20044;-84
2023/10/30 09:36:13;;;;;;;13.88;4.00;;;12.70;75.00;;;;;;5077507;28;19912;-84
2023/10/30 09:38:41;;;;;;;8.53;2.37;;;12.80;95.80;;;;;;5036162;28;20045;-84
2023/10/30 09:41:10;;;;;;;10.30;3.20;;;12.90;96.20;;;;;;5007705;28;20052;-84
2023/10/30 09:47:46;;;;;;;8.20;3.08;;;13.10;82.80;;;;;;5056893;28;20490;-84
2023/10/30 09:53:59;;;;;;;7.05;2.33;;;13.20;76.70;;;;;;5056741;28;20087;-84
2023/10/30 10:00:06;;;;;;;;;;;13.20;71.10;;;;;;5064178;28;20238;-85
2023/10/30 10:02:35;;;;;;;9.52;2.65;;;13.20;52.70;;;;;;5038621;28;19923;-85
2023/10/30 10:05:01;;;;;;;9.88;2.85;;;13.10;85.40;;;;;;5021782;28;20131;-86
2023/10/30 10:07:27;;;;;;;8.33;2.47;;;13.10;91.30;;;;;;5039123;28;20171;-86
2023/10/30 10:09:57;;;;;;;8.57;2.95;;;13.00;91.50;;;;;;5032210;28;20037;-90
2023/10/30 10:12:23;;;;;;;8.40;3.00;;;12.90;90.80;;;;;;5042527;28;20119;-87
2023/10/30 10:14:54;;;;;;;11.37;2.47;;;12.90;92.40;;;;;;5035254;28;20500;-86
2023/10/30 10:17:19;;;;;;;7.72;3.58;;;12.80;90.60;;;;;;5028868;28;20083;-86
2023/10/30 10:19:46;;;;;;;6.78;2.60;;;12.80;94.00;;;;;;5026832;28;20044;-86
2023/10/30 10:22:28;;;;;;;;;;;12.70;94.00;;;;;;5031897;28;20039;-87
2023/10/30 10:24:55;;;;;;;5.70;2.50;;;12.70;76.90;;;;;;5045350;28;19920;-86
2023/10/30 10:27:24;;;;;;;7.00;2.60;;;12.70;96.30;;;;;;5012122;28;20044;-86
2023/10/30 10:29:55;;;;;;;4.57;2.13;;;12.80;97.10;;;;;;5051812;28;20483;-86
2023/10/30 10:32:28;;;;;;;16.42;3.20;;;12.90;96.50;;;;;;5027129;28;20088;-87
2023/10/30 10:35:07;;;;;;;9.93;3.20;;;13.20;96.10;;;;;;5051839;28;20040;-86
2023/10/30 10:37:33;;;;;;;8.35;2.90;;;13.40;94.40;;;;;;5035731;28;20043;-86
2023/10/30 10:40:01;;;;;;;15.20;2.95;;;13.30;93.90;;;;;;5068718;28;20357;-87
2023/10/30 10:42:30;;;;;;;9.77;2.30;;;13.70;92.00;;;;;;5052414;28;20040;-87
2023/10/30 10:44:57;;;;;;;11.75;3.38;;;13.90;91.40;;;;;;5036263;28;20119;-85
2023/10/30 10:47:23;;;;;;;12.43;2.92;;;13.80;88.70;;;;;;5052139;28;20054;-87
2023/10/30 10:49:50;;;;;;;10.13;3.20;;;13.90;89.40;;;;;;5043623;28;20045;-90
2023/10/30 10:52:19;;;;;;;8.95;3.38;;;13.90;87.90;;;;;;5035907;28;20033;-87
2023/10/30 10:55:03;;;;;;;9.15;2.65;;;13.90;85.60;;;;;;5053158;28;20079;-86
2023/10/30 10:57:41;;;;;;;10.90;3.03;;;13.90;75.20;;;;;;5057368;28;20051;-86
2023/10/30 11:00:18;;;;;;;8.48;2.53;;;13.90;80.20;;;;;;5059383;28;20041;-88
2023/10/30 11:02:49;;;;;;;7.00;2.33;;;13.90;84.50;;;;;;5058225;28;20480;-85
2023/10/30 11:05:29;;;;;;;10.65;2.83;;;13.90;82.60;;;;;;5041588;28;20044;-86
2023/10/30 11:15:03;;;;;;;6.10;2.63;;;14.40;49.00;;;;;;5053723;28;20053;-85
2023/10/30 11:21:13;;;;;;;9.55;2.60;;;14.50;45.30;;;;;;5050638;28;20052;-85
2023/10/30 11:23:44;;;;;;;8.53;3.40;;;14.40;43.40;;;;;;5037860;28;20384;-85
2023/10/30 11:26:29;;;;;;;6.30;2.17;;;14.30;64.00;;;;;;5021120;28;20037;-85
2023/10/30 11:28:55;;;;;;;9.32;2.83;;;14.30;54.50;;;;;;5038535;28;20045;-86
2023/10/30 11:31:21;;;;;;;12.15;2.90;;;14.30;76.50;;;;;;5045243;28;20040;-84
2023/10/30 11:33:48;;;;;;;10.20;2.83;;;14.40;71.70;;;;;;5039445;28;20049;-88
2023/10/30 11:36:18;;;;;;;9.10;2.38;;;14.50;72.90;;;;;;5039683;28;20503;-85
2023/10/30 11:38:48;;;;;;;6.78;2.45;;;14.50;69.00;;;;;;5034217;28;20366;-84
2023/10/30 11:41:23;;;;;;;16.02;3.05;;;14.50;64.60;;;;;;5017498;28;20049;-85
2023/10/30 11:43:49;;;;;;;9.98;3.22;;;14.50;53.20;;;;;;5022547;28;20134;-85
2023/10/30 11:46:17;;;;;;;10.57;3.30;;;14.30;64.50;;;;;;5023738;28;20084;-85
2023/10/30 11:48:44;;;;;;;8.68;3.80;;;14.30;63.60;;;;;;5019401;28;20473;-84
2023/10/30 11:51:09;;;;;;;;;;;14.20;60.60;;;;;;5017072;28;20492;-85
2023/10/30 11:53:35;;;;;;;7.20;2.20;;;14.10;29.50;;;;;;5032804;28;20015;-84
2023/10/30 11:56:03;;;;;;;8.00;3.00;;;14.90;66.40;;;;;;5045411;28;20500;-85
2023/10/30 11:58:33;;;;;;;9.52;3.92;;;14.10;65.00;;;;;;5033456;28;20060;-85
2023/10/30 12:01:02;;;;;;;10.85;2.63;;;14.10;63.30;;;;;;5035794;28;20045;-84
2023/10/30 12:03:31;;;;;;;12.15;3.65;;;14.00;61.70;;;;;;5053488;28;20037;-84
2023/10/30 12:05:57;;;;;;;10.45;3.47;;;14.00;59.90;;;;;;5037738;28;20561;-84
2023/10/30 12:08:22;;;;;;;9.60;2.88;;;13.90;59.40;;;;;;5029374;28;20041;-85
2023/10/30 12:10:49;;;;;;;10.30;3.00;;;13.90;61.00;;;;;;5031334;28;20096;-84
2023/10/30 12:13:14;;;;;;;8.32;2.40;;;13.90;63.50;;;;;;5033627;28;20840;-83
2023/10/30 12:15:40;;;;;;;11.40;3.17;;;13.60;62.50;;;;;;5049395;28;20123;-85
2023/10/30 12:18:06;;;;;;;13.25;3.28;;;13.80;64.70;;;;;;5023503;28;20051;-85
2023/10/30 12:20:32;;;;;;;10.13;2.85;;;13.80;68.20;;;;;;5037212;28;20040;-85
2023/10/30 12:22:58;;;;;;;12.88;3.75;;;13.80;69.30;;;;;;5040228;28;20445;-92
2023/10/30 12:25:24;;;;;;;9.07;2.72;;;13.80;65.60;;;;;;5035311;28;20370;-85
2023/10/30 12:27:50;;;;;;;7.68;2.80;;;13.80;64.40;;;;;;5019800;28;20469;-84
2023/10/30 12:30:17;;;;;;;9.70;3.38;;;13.70;66.40;;;;;;5008084;28;20041;-84
2023/10/30 12:32:52;;;;;;;8.38;2.90;;;13.70;66.90;;;;;;5050560;28;20072;-83
2023/10/30 12:35:18;;;;;;;8.73;2.67;;;13.60;66.50;;;;;;5072308;28;20040;-84
2023/10/30 12:37:44;;;;;;;4.88;2.25;;;13.70;67.00;;;;;;5026700;28;20040;-83
2023/10/30 12:40:12;;;;;;;6.00;2.13;;;13.60;66.90;;;;;;5041658;28;20170;-86
2023/10/30 12:42:48;;;;;;;16.48;3.22;;;13.60;67.50;;;;;;5026447;28;20041;-84
2023/10/30 12:45:15;;;;;;;13.63;3.83;;;13.70;65.00;;;;;;5044427;28;20584;-84
2023/10/30 12:47:42;;;;;;;8.23;2.83;;;13.70;71.60;;;;;;5055977;28;20036;-83
2023/10/30 13:05:38;;;;;;;9.55;2.78;;;13.80;70.30;;;;;;5072187;28;20376;-84
2023/10/30 13:08:04;;;;;;;10.77;2.92;;;13.90;63.90;;;;;;5072798;28;20064;-84
2023/10/30 13:10:30;;;;;;;15.00;2.55;;;13.90;75.90;;;;;;5039513;28;20039;-84
2023/10/30 13:12:55;;;;;;;8.83;2.40;;;13.90;74.20;;;;;;5056372;28;20105;-85
2023/10/30 13:15:21;;;;;;;11.63;2.93;;;13.90;73.50;;;;;;5023553;28;20190;-84
2023/10/30 13:17:47;;;;;;;13.82;2.78;;;14.00;70.40;;;;;;5047369;28;20303;-85
2023/10/30 13:20:13;;;;;;;7.70;2.23;;;14.00;70.10;;;;;;5039618;28;20041;-84
2023/10/30 13:22:39;;;;;;;9.23;3.60;;;14.00;68.00;;;;;;5048709;28;20050;-85
2023/10/30 13:25:21;;;;;;;11.70;2.47;;;14.10;67.00;;;;;;5033524;28;20049;-84
2023/10/30 13:27:46;;;;;;;9.63;2.38;;;14.10;60.10;;;;;;5033470;28;20041;-84
2023/10/30 13:30:12;;;;;;;7.40;2.83;;;14.10;65.10;;;;;;5034512;28;20052;-84
2023/10/30 13:32:47;;;;;;;5.03;2.40;;;14.10;63.80;;;;;;5033404;28;20037;-84
2023/10/30 13:38:54;;;;;;;7.00;2.72;;;14.10;59.10;;;;;;5033240;28;20040;-84
2023/10/30 13:45:03;;;;;;;8.75;3.38;;;14.00;52.60;;;;;;5033043;28;20094;-84
2023/10/30 13:51:30;;;;;;;7.88;3.13;;;14.00;54.90;;;;;;5032897;28;20106;-85
2023/10/30 13:57:19;;;;;;;11.95;2.67;;;14.00;55.20;;;;;;5033199;28;20485;-84
2023/10/30 13:59:45;;;;;;;14.93;3.35;;;13.90;63.90;;;;;;5031492;28;20073;-84
2023/10/30 14:02:11;;;;;;;9.30;4.43;;;13.90;65.00;;;;;;5033034;28;20088;-84
2023/10/30 14:04:37;;;;;;;11.88;2.63;;;13.90;65.20;;;;;;5015587;28;20076;-84
2023/10/30 14:07:04;;;;;;;8.20;3.30;;;13.90;64.30;;;;;;5031725;28;20042;-84
2023/10/30 14:09:29;;;;;;;;;;;13.90;64.40;;;;;;5048577;28;20053;-84
2023/10/30 14:11:55;;;;;;;10.77;3.00;;;13.90;51.00;;;;;;5017509;28;20042;-84
2023/10/30 14:14:22;;;;;;;9.57;2.67;;;13.80;68.60;;;;;;5034668;28;20065;-84
2023/10/30 14:16:48;;;;;;;8.35;2.72;;;13.80;68.60;;;;;;5036205;28;20089;-84
2023/10/30 14:19:13;;;;;;;10.10;2.72;;;13.80;67.80;;;;;;5051783;28;20091;-84
2023/10/30 14:21:39;;;;;;;8.13;2.63;;;13.80;67.90;;;;;;5018556;28;20057;-83
2023/10/30 14:24:07;;;;;;;7.00;2.40;;;13.70;68.20;;;;;;5051715;28;20481;-84
2023/10/30 14:26:34;;;;;;;13.38;2.85;;;13.70;68.10;;;;;;5036283;28;20284;-84
2023/10/30 14:28:59;;;;;;;;;;;13.70;68.90;;;;;;5035500;28;20041;-83
2023/10/30 14:31:25;;;;;;;11.95;3.17;;;13.60;54.50;;;;;;5035073;28;19928;-83
2023/10/30 14:33:51;;;;;;;5.93;2.67;;;13.60;72.00;;;;;;5018456;28;20413;-84
2023/10/30 14:36:17;;;;;;;13.70;2.38;;;13.60;73.00;;;;;;5019225;28;20136;-84
2023/10/30 14:38:42;;;;;;;10.50;2.47;;;13.50;73.80;;;;;;5036720;28;20140;-84
2023/10/30 14:41:08;;;;;;;8.73;2.90;;;13.50;74.90;;;;;;5035629;28;20068;-83
2023/10/30 14:43:34;;;;;;;11.80;3.67;;;13.40;75.50;;;;;;5036037;28;20087;-84
2023/10/30 14:46:00;;;;;;;8.27;2.90;;;13.40;76.60;;;;;;5035865;28;20283;-84
2023/10/30 14:48:28;;;;;;;9.98;2.75;;;13.40;78.00;;;;;;5034942;28;20051;-84
2023/10/30 14:50:56;;;;;;;11.65;2.60;;;13.40;79.00;;;;;;5017504;28;20058;-84
2023/10/30 14:53:22;;;;;;;8.40;2.47;;;13.30;80.40;;;;;;5035758;28;20072;-83
2023/10/30 14:55:48;;;;;;;8.93;2.35;;;13.40;80.60;;;;;;5018249;28;20400;-84
2023/10/30 14:58:13;;;;;;;6.22;1.90;;;13.40;81.40;;;;;;5018232;28;20052;-84
2023/10/30 15:00:39;;;;;;;9.37;2.83;;;13.30;81.90;;;;;;5034414;28;20473;-84
2023/10/30 15:03:05;;;;;;;7.90;2.27;;;13.30;83.00;;;;;;5034933;28;20335;-84
2023/10/30 15:05:31;;;;;;;9.97;3.37;;;13.30;84.20;;;;;;5035593;28;20049;-84
2023/10/30 15:07:56;;;;;;;7.95;2.88;;;13.30;84.40;;;;;;5051174;28;20041;-84
2023/10/30 15:10:22;;;;;;;6.20;2.70;;;13.30;84.70;;;;;;5017671;28;20045;-84
2023/10/30 15:12:48;;;;;;;7.78;2.45;;;13.30;85.60;;;;;;5017724;28;20139;-84
2023/10/30 15:15:15;;;;;;;7.47;3.30;;;13.30;87.10;;;;;;5033724;28;20058;-84
2023/10/30 15:17:40;;;;;;;10.18;3.10;;;13.30;88.80;;;;;;5034267;28;20132;-84
2023/10/30 15:20:07;;;;;;;9.60;3.13;;;13.30;90.00;;;;;;5035248;28;20176;-84